sensor_id;sensor_type;location;lat;lon;timestamp;P1;durP1;ratioP1;P2;durP2;ratioP2
64560;SDS011;50960;46.838;16.838;2023-07-29T00:01:36;2.60;;;2.20;;
64560;SDS011;50960;46.838;16.838;2023-07-29T00:04:05;3.25;;;2.20;;
64560;SDS011;50960;46.838;16.838;2023-07-29T00:06:31;3.83;;;2.50;;
64560;SDS011;50960;46.838;16.838;2023-07-29T00:08:58;2.58;;;2.20;;
64560;SDS011;50960;46.838;16.838;2023-07-29T00:11:24;3.15;;;2.60;;
64560;SDS011;50960;46.838;16.838;2023-07-29T00:13:51;2.50;;;2.30;;
64560;SDS011;50960;46.838;16.838;2023-07-29T00:16:18;3.95;;;2.20;;
64560;SDS011;50960;46.838;16.838;2023-07-29T00:18:50;3.08;;;2.30;;
64560;SDS011;50960;46.838;16.838;2023-07-29T00:21:17;2.75;;;2.30;;
64560;SDS011;50960;46.838;16.838;2023-07-29T00:23:44;3.20;;;2.30;;
64560;SDS011;50960;46.838;16.838;2023-07-29T00:26:11;3.60;;;2.53;;
64560;SDS011;50960;46.838;16.838;2023-07-29T00:28:38;2.65;;;2.42;;
64560;SDS011;50960;46.838;16.838;2023-07-29T00:31:04;2.90;;;2.28;;
64560;SDS011;50960;46.838;16.838;2023-07-29T00:33:31;6.28;;;2.33;;
64560;SDS011;50960;46.838;16.838;2023-07-29T00:35:57;3.33;;;2.33;;
64560;SDS011;50960;46.838;16.838;2023-07-29T00:38:27;3.10;;;2.25;;
64560;SDS011;50960;46.838;16.838;2023-07-29T00:40:54;2.20;;;2.00;;
64560;SDS011;50960;46.838;16.838;2023-07-29T00:43:20;3.03;;;2.30;;
64560;SDS011;50960;46.838;16.838;2023-07-29T00:45:47;2.60;;;2.40;;
64560;SDS011;50960;46.838;16.838;2023-07-29T00:48:13;2.70;;;2.50;;
64560;SDS011;50960;46.838;16.838;2023-07-29T00:50:40;3.67;;;2.60;;
64560;SDS011;50960;46.838;16.838;2023-07-29T00:53:07;3.17;;;2.45;;
64560;SDS011;50960;46.838;16.838;2023-07-29T00:55:33;3.50;;;2.65;;
64560;SDS011;50960;46.838;16.838;2023-07-29T00:58:00;2.78;;;2.20;;
64560;SDS011;50960;46.838;16.838;2023-07-29T01:00:26;3.97;;;2.60;;
64560;SDS011;50960;46.838;16.838;2023-07-29T01:02:53;2.70;;;2.40;;
64560;SDS011;50960;46.838;16.838;2023-07-29T01:05:20;2.58;;;2.40;;
64560;SDS011;50960;46.838;16.838;2023-07-29T01:07:49;4.55;;;2.60;;
64560;SDS011;50960;46.838;16.838;2023-07-29T01:10:31;3.08;;;2.70;;
64560;SDS011;50960;46.838;16.838;2023-07-29T01:18:05;3.22;;;2.33;;
64560;SDS011;50960;46.838;16.838;2023-07-29T01:20:33;4.07;;;2.40;;
64560;SDS011;50960;46.838;16.838;2023-07-29T01:23:00;2.58;;;2.13;;
64560;SDS011;50960;46.838;16.838;2023-07-29T01:25:27;2.97;;;2.55;;
64560;SDS011;50960;46.838;16.838;2023-07-29T01:27:53;2.90;;;2.30;;
64560;SDS011;50960;46.838;16.838;2023-07-29T01:30:21;2.67;;;2.40;;
64560;SDS011;50960;46.838;16.838;2023-07-29T01:35:47;2.92;;;2.50;;
64560;SDS011;50960;46.838;16.838;2023-07-29T01:38:15;3.42;;;2.78;;
64560;SDS011;50960;46.838;16.838;2023-07-29T01:40:43;2.85;;;2.60;;
64560;SDS011;50960;46.838;16.838;2023-07-29T01:43:11;4.10;;;2.60;;
64560;SDS011;50960;46.838;16.838;2023-07-29T01:45:38;3.00;;;2.80;;
64560;SDS011;50960;46.838;16.838;2023-07-29T01:48:06;3.90;;;2.72;;
64560;SDS011;50960;46.838;16.838;2023-07-29T01:50:33;3.95;;;2.45;;
64560;SDS011;50960;46.838;16.838;2023-07-29T01:53:00;2.78;;;2.58;;
64560;SDS011;50960;46.838;16.838;2023-07-29T01:55:26;3.10;;;2.60;;
64560;SDS011;50960;46.838;16.838;2023-07-29T01:57:52;3.75;;;2.53;;
64560;SDS011;50960;46.838;16.838;2023-07-29T02:00:19;3.95;;;2.72;;
64560;SDS011;50960;46.838;16.838;2023-07-29T02:02:45;4.65;;;2.90;;
64560;SDS011;50960;46.838;16.838;2023-07-29T02:05:12;3.38;;;2.72;;
64560;SDS011;50960;46.838;16.838;2023-07-29T02:07:38;4.72;;;2.53;;
64560;SDS011;50960;46.838;16.838;2023-07-29T02:10:05;4.82;;;3.10;;
64560;SDS011;50960;46.838;16.838;2023-07-29T02:12:31;4.43;;;2.50;;
64560;SDS011;50960;46.838;16.838;2023-07-29T02:14:58;3.88;;;2.83;;
64560;SDS011;50960;46.838;16.838;2023-07-29T02:17:24;3.00;;;2.70;;
64560;SDS011;50960;46.838;16.838;2023-07-29T02:19:51;2.78;;;2.53;;
64560;SDS011;50960;46.838;16.838;2023-07-29T02:22:18;2.92;;;2.72;;
64560;SDS011;50960;46.838;16.838;2023-07-29T02:24:44;3.38;;;2.80;;
64560;SDS011;50960;46.838;16.838;2023-07-29T02:27:11;3.05;;;2.75;;
64560;SDS011;50960;46.838;16.838;2023-07-29T02:29:37;2.97;;;2.67;;
64560;SDS011;50960;46.838;16.838;2023-07-29T02:32:04;3.45;;;2.70;;
64560;SDS011;50960;46.838;16.838;2023-07-29T02:34:30;2.95;;;2.65;;
64560;SDS011;50960;46.838;16.838;2023-07-29T02:36:57;4.22;;;2.75;;
64560;SDS011;50960;46.838;16.838;2023-07-29T02:39:23;2.80;;;2.60;;
64560;SDS011;50960;46.838;16.838;2023-07-29T02:41:50;3.80;;;2.60;;
64560;SDS011;50960;46.838;16.838;2023-07-29T02:44:16;4.20;;;2.60;;
64560;SDS011;50960;46.838;16.838;2023-07-29T02:46:45;3.10;;;2.80;;
64560;SDS011;50960;46.838;16.838;2023-07-29T02:49:11;2.88;;;2.67;;
64560;SDS011;50960;46.838;16.838;2023-07-29T02:51:37;3.72;;;3.15;;
64560;SDS011;50960;46.838;16.838;2023-07-29T02:54:04;4.15;;;2.85;;
64560;SDS011;50960;46.838;16.838;2023-07-29T02:56:30;2.90;;;2.70;;
64560;SDS011;50960;46.838;16.838;2023-07-29T02:58:57;2.67;;;2.47;;
64560;SDS011;50960;46.838;16.838;2023-07-29T03:01:23;3.70;;;2.70;;
64560;SDS011;50960;46.838;16.838;2023-07-29T03:03:52;2.80;;;2.58;;
64560;SDS011;50960;46.838;16.838;2023-07-29T03:06:19;3.08;;;2.70;;
64560;SDS011;50960;46.838;16.838;2023-07-29T03:08:45;2.67;;;2.47;;
64560;SDS011;50960;46.838;16.838;2023-07-29T03:11:12;3.35;;;2.75;;
64560;SDS011;50960;46.838;16.838;2023-07-29T03:13:40;3.70;;;3.40;;
64560;SDS011;50960;46.838;16.838;2023-07-29T03:16:10;3.22;;;2.70;;
64560;SDS011;50960;46.838;16.838;2023-07-29T03:18:39;3.25;;;2.80;;
64560;SDS011;50960;46.838;16.838;2023-07-29T03:21:05;3.15;;;2.85;;
64560;SDS011;50960;46.838;16.838;2023-07-29T03:23:32;4.85;;;2.80;;
64560;SDS011;50960;46.838;16.838;2023-07-29T03:26:01;3.67;;;3.13;;
64560;SDS011;50960;46.838;16.838;2023-07-29T03:28:36;3.30;;;2.90;;
64560;SDS011;50960;46.838;16.838;2023-07-29T03:31:11;3.42;;;3.00;;
64560;SDS011;50960;46.838;16.838;2023-07-29T03:33:38;3.35;;;2.58;;
64560;SDS011;50960;46.838;16.838;2023-07-29T03:36:04;6.30;;;2.80;;
64560;SDS011;50960;46.838;16.838;2023-07-29T03:38:31;3.00;;;2.80;;
64560;SDS011;50960;46.838;16.838;2023-07-29T03:40:58;3.58;;;2.97;;
64560;SDS011;50960;46.838;16.838;2023-07-29T03:43:25;4.00;;;2.85;;
64560;SDS011;50960;46.838;16.838;2023-07-29T03:45:51;2.80;;;2.58;;
64560;SDS011;50960;46.838;16.838;2023-07-29T03:48:17;3.10;;;2.80;;
64560;SDS011;50960;46.838;16.838;2023-07-29T03:50:44;2.90;;;2.60;;
64560;SDS011;50960;46.838;16.838;2023-07-29T03:53:10;3.17;;;2.65;;
64560;SDS011;50960;46.838;16.838;2023-07-29T03:55:36;3.10;;;2.90;;
64560;SDS011;50960;46.838;16.838;2023-07-29T03:58:03;2.85;;;2.65;;
64560;SDS011;50960;46.838;16.838;2023-07-29T04:00:29;4.30;;;2.63;;
64560;SDS011;50960;46.838;16.838;2023-07-29T04:02:55;4.28;;;2.58;;
64560;SDS011;50960;46.838;16.838;2023-07-29T04:05:22;3.88;;;3.17;;
64560;SDS011;50960;46.838;16.838;2023-07-29T04:07:48;3.97;;;3.20;;
64560;SDS011;50960;46.838;16.838;2023-07-29T04:10:15;3.63;;;3.15;;
64560;SDS011;50960;46.838;16.838;2023-07-29T04:12:42;3.10;;;2.80;;
64560;SDS011;50960;46.838;16.838;2023-07-29T04:15:09;4.97;;;2.90;;
64560;SDS011;50960;46.838;16.838;2023-07-29T04:17:35;3.33;;;2.90;;
64560;SDS011;50960;46.838;16.838;2023-07-29T04:20:02;3.40;;;2.70;;
64560;SDS011;50960;46.838;16.838;2023-07-29T04:22:28;3.63;;;2.70;;
64560;SDS011;50960;46.838;16.838;2023-07-29T04:24:55;3.00;;;2.67;;
64560;SDS011;50960;46.838;16.838;2023-07-29T04:27:22;3.35;;;2.78;;
64560;SDS011;50960;46.838;16.838;2023-07-29T04:29:49;3.80;;;2.83;;
64560;SDS011;50960;46.838;16.838;2023-07-29T04:32:15;2.72;;;2.53;;
64560;SDS011;50960;46.838;16.838;2023-07-29T04:34:41;3.28;;;2.88;;
64560;SDS011;50960;46.838;16.838;2023-07-29T04:37:08;3.40;;;3.10;;
64560;SDS011;50960;46.838;16.838;2023-07-29T04:39:34;3.35;;;2.80;;
64560;SDS011;50960;46.838;16.838;2023-07-29T04:42:01;3.33;;;3.10;;
64560;SDS011;50960;46.838;16.838;2023-07-29T04:44:27;3.50;;;2.80;;
64560;SDS011;50960;46.838;16.838;2023-07-29T04:46:53;3.67;;;2.97;;
64560;SDS011;50960;46.838;16.838;2023-07-29T04:49:21;3.22;;;2.70;;
64560;SDS011;50960;46.838;16.838;2023-07-29T04:51:47;6.45;;;2.88;;
64560;SDS011;50960;46.838;16.838;2023-07-29T04:54:14;4.55;;;3.00;;
64560;SDS011;50960;46.838;16.838;2023-07-29T04:56:40;3.80;;;3.05;;
64560;SDS011;50960;46.838;16.838;2023-07-29T04:59:07;5.88;;;2.88;;
64560;SDS011;50960;46.838;16.838;2023-07-29T05:01:34;3.22;;;2.92;;
64560;SDS011;50960;46.838;16.838;2023-07-29T05:04:00;3.70;;;3.13;;
64560;SDS011;50960;46.838;16.838;2023-07-29T05:06:27;3.55;;;3.25;;
64560;SDS011;50960;46.838;16.838;2023-07-29T05:08:54;3.17;;;2.97;;
64560;SDS011;50960;46.838;16.838;2023-07-29T05:11:23;3.58;;;2.95;;
64560;SDS011;50960;46.838;16.838;2023-07-29T05:13:51;3.42;;;2.90;;
64560;SDS011;50960;46.838;16.838;2023-07-29T05:16:17;6.78;;;4.97;;
64560;SDS011;50960;46.838;16.838;2023-07-29T05:18:43;3.35;;;2.90;;
64560;SDS011;50960;46.838;16.838;2023-07-29T05:21:10;4.45;;;3.45;;
64560;SDS011;50960;46.838;16.838;2023-07-29T05:23:40;3.60;;;3.30;;
64560;SDS011;50960;46.838;16.838;2023-07-29T05:26:06;3.00;;;2.80;;
64560;SDS011;50960;46.838;16.838;2023-07-29T05:28:34;4.63;;;3.60;;
64560;SDS011;50960;46.838;16.838;2023-07-29T05:31:00;4.20;;;2.95;;
64560;SDS011;50960;46.838;16.838;2023-07-29T05:33:27;4.13;;;2.90;;
64560;SDS011;50960;46.838;16.838;2023-07-29T05:35:54;3.40;;;3.10;;
64560;SDS011;50960;46.838;16.838;2023-07-29T05:38:20;3.55;;;3.10;;
64560;SDS011;50960;46.838;16.838;2023-07-29T05:40:48;3.83;;;2.92;;
64560;SDS011;50960;46.838;16.838;2023-07-29T05:43:14;3.50;;;3.20;;
64560;SDS011;50960;46.838;16.838;2023-07-29T05:45:41;3.28;;;2.97;;
64560;SDS011;50960;46.838;16.838;2023-07-29T05:48:07;3.40;;;3.10;;
64560;SDS011;50960;46.838;16.838;2023-07-29T05:50:33;4.30;;;3.47;;
64560;SDS011;50960;46.838;16.838;2023-07-29T05:53:00;4.15;;;3.75;;
64560;SDS011;50960;46.838;16.838;2023-07-29T05:55:26;5.55;;;3.55;;
64560;SDS011;50960;46.838;16.838;2023-07-29T05:57:53;3.55;;;3.25;;
64560;SDS011;50960;46.838;16.838;2023-07-29T06:00:20;4.72;;;3.40;;
64560;SDS011;50960;46.838;16.838;2023-07-29T06:02:47;4.93;;;3.42;;
64560;SDS011;50960;46.838;16.838;2023-07-29T06:05:14;5.90;;;3.47;;
64560;SDS011;50960;46.838;16.838;2023-07-29T06:07:40;3.58;;;3.28;;
64560;SDS011;50960;46.838;16.838;2023-07-29T06:10:12;4.32;;;3.47;;
64560;SDS011;50960;46.838;16.838;2023-07-29T06:12:40;4.00;;;3.60;;
64560;SDS011;50960;46.838;16.838;2023-07-29T06:15:06;3.67;;;3.35;;
64560;SDS011;50960;46.838;16.838;2023-07-29T06:17:33;4.13;;;3.33;;
64560;SDS011;50960;46.838;16.838;2023-07-29T06:19:59;4.47;;;3.30;;
64560;SDS011;50960;46.838;16.838;2023-07-29T06:22:26;4.00;;;3.50;;
64560;SDS011;50960;46.838;16.838;2023-07-29T06:24:52;4.22;;;3.83;;
64560;SDS011;50960;46.838;16.838;2023-07-29T06:27:19;4.68;;;3.80;;
64560;SDS011;50960;46.838;16.838;2023-07-29T06:29:46;4.95;;;4.13;;
64560;SDS011;50960;46.838;16.838;2023-07-29T06:32:12;4.28;;;3.88;;
64560;SDS011;50960;46.838;16.838;2023-07-29T06:34:39;4.97;;;4.47;;
64560;SDS011;50960;46.838;16.838;2023-07-29T06:37:05;4.40;;;4.00;;
64560;SDS011;50960;46.838;16.838;2023-07-29T06:39:33;4.70;;;4.10;;
64560;SDS011;50960;46.838;16.838;2023-07-29T06:41:59;4.57;;;4.03;;
64560;SDS011;50960;46.838;16.838;2023-07-29T06:44:25;5.22;;;3.97;;
64560;SDS011;50960;46.838;16.838;2023-07-29T06:46:52;4.70;;;3.58;;
64560;SDS011;50960;46.838;16.838;2023-07-29T06:49:18;6.07;;;3.70;;
64560;SDS011;50960;46.838;16.838;2023-07-29T06:51:45;4.97;;;4.07;;
64560;SDS011;50960;46.838;16.838;2023-07-29T06:54:11;4.18;;;3.80;;
64560;SDS011;50960;46.838;16.838;2023-07-29T06:56:37;4.55;;;4.03;;
64560;SDS011;50960;46.838;16.838;2023-07-29T06:59:04;3.83;;;3.50;;
64560;SDS011;50960;46.838;16.838;2023-07-29T07:01:30;4.75;;;3.53;;
64560;SDS011;50960;46.838;16.838;2023-07-29T07:03:57;3.65;;;3.35;;
64560;SDS011;50960;46.838;16.838;2023-07-29T07:06:24;4.53;;;4.13;;
64560;SDS011;50960;46.838;16.838;2023-07-29T07:08:50;3.75;;;3.30;;
64560;SDS011;50960;46.838;16.838;2023-07-29T07:11:18;3.35;;;3.05;;
64560;SDS011;50960;46.838;16.838;2023-07-29T07:13:44;4.05;;;3.67;;
64560;SDS011;50960;46.838;16.838;2023-07-29T07:16:11;4.72;;;3.28;;
64560;SDS011;50960;46.838;16.838;2023-07-29T07:18:37;4.97;;;3.30;;
64560;SDS011;50960;46.838;16.838;2023-07-29T07:21:04;4.28;;;3.03;;
64560;SDS011;50960;46.838;16.838;2023-07-29T07:23:30;4.93;;;3.40;;
64560;SDS011;50960;46.838;16.838;2023-07-29T07:25:57;3.55;;;3.28;;
64560;SDS011;50960;46.838;16.838;2023-07-29T07:28:23;6.68;;;3.40;;
64560;SDS011;50960;46.838;16.838;2023-07-29T07:30:50;3.58;;;3.17;;
64560;SDS011;50960;46.838;16.838;2023-07-29T07:33:17;3.30;;;3.00;;
64560;SDS011;50960;46.838;16.838;2023-07-29T07:35:43;4.80;;;3.25;;
64560;SDS011;50960;46.838;16.838;2023-07-29T07:38:10;3.40;;;3.10;;
64560;SDS011;50960;46.838;16.838;2023-07-29T07:40:36;3.50;;;3.15;;
64560;SDS011;50960;46.838;16.838;2023-07-29T07:43:04;3.22;;;3.03;;
64560;SDS011;50960;46.838;16.838;2023-07-29T07:45:31;3.10;;;2.90;;
64560;SDS011;50960;46.838;16.838;2023-07-29T07:47:58;4.65;;;3.47;;
64560;SDS011;50960;46.838;16.838;2023-07-29T07:50:24;3.78;;;3.40;;
64560;SDS011;50960;46.838;16.838;2023-07-29T07:52:51;5.57;;;3.45;;
64560;SDS011;50960;46.838;16.838;2023-07-29T07:55:18;3.40;;;3.20;;
64560;SDS011;50960;46.838;16.838;2023-07-29T07:57:44;4.13;;;3.03;;
64560;SDS011;50960;46.838;16.838;2023-07-29T08:00:12;3.38;;;2.97;;
64560;SDS011;50960;46.838;16.838;2023-07-29T08:02:40;3.13;;;2.90;;
64560;SDS011;50960;46.838;16.838;2023-07-29T08:05:07;2.90;;;2.70;;
64560;SDS011;50960;46.838;16.838;2023-07-29T08:07:34;3.55;;;3.15;;
64560;SDS011;50960;46.838;16.838;2023-07-29T08:10:00;3.20;;;2.60;;
64560;SDS011;50960;46.838;16.838;2023-07-29T08:12:27;2.97;;;2.67;;
64560;SDS011;50960;46.838;16.838;2023-07-29T08:14:53;2.95;;;2.67;;
64560;SDS011;50960;46.838;16.838;2023-07-29T08:17:19;4.05;;;3.40;;
64560;SDS011;50960;46.838;16.838;2023-07-29T08:19:46;5.03;;;2.70;;
64560;SDS011;50960;46.838;16.838;2023-07-29T08:22:12;3.00;;;2.70;;
64560;SDS011;50960;46.838;16.838;2023-07-29T08:24:38;3.45;;;3.15;;
64560;SDS011;50960;46.838;16.838;2023-07-29T08:27:05;2.80;;;2.60;;
64560;SDS011;50960;46.838;16.838;2023-07-29T08:29:32;2.72;;;2.50;;
64560;SDS011;50960;46.838;16.838;2023-07-29T08:31:58;2.88;;;2.67;;
64560;SDS011;50960;46.838;16.838;2023-07-29T08:34:25;4.47;;;2.70;;
64560;SDS011;50960;46.838;16.838;2023-07-29T08:36:51;3.70;;;2.97;;
64560;SDS011;50960;46.838;16.838;2023-07-29T08:39:17;3.75;;;2.78;;
64560;SDS011;50960;46.838;16.838;2023-07-29T08:44:35;3.13;;;2.92;;
64560;SDS011;50960;46.838;16.838;2023-07-29T08:47:05;3.20;;;2.90;;
64560;SDS011;50960;46.838;16.838;2023-07-29T08:49:32;3.35;;;3.05;;
64560;SDS011;50960;46.838;16.838;2023-07-29T08:51:59;3.30;;;2.90;;
64560;SDS011;50960;46.838;16.838;2023-07-29T08:54:27;3.65;;;3.00;;
64560;SDS011;50960;46.838;16.838;2023-07-29T08:56:54;3.42;;;3.13;;
64560;SDS011;50960;46.838;16.838;2023-07-29T08:59:20;3.65;;;3.00;;
64560;SDS011;50960;46.838;16.838;2023-07-29T09:01:47;2.83;;;2.50;;
64560;SDS011;50960;46.838;16.838;2023-07-29T09:04:14;3.13;;;2.90;;
64560;SDS011;50960;46.838;16.838;2023-07-29T09:06:42;3.00;;;2.70;;
64560;SDS011;50960;46.838;16.838;2023-07-29T09:09:10;3.40;;;2.90;;
64560;SDS011;50960;46.838;16.838;2023-07-29T09:11:36;3.30;;;2.92;;
64560;SDS011;50960;46.838;16.838;2023-07-29T09:14:02;3.00;;;2.65;;
64560;SDS011;50960;46.838;16.838;2023-07-29T09:16:29;3.80;;;3.20;;
64560;SDS011;50960;46.838;16.838;2023-07-29T09:18:55;3.72;;;3.17;;
64560;SDS011;50960;46.838;16.838;2023-07-29T09:21:26;3.03;;;2.83;;
64560;SDS011;50960;46.838;16.838;2023-07-29T09:23:54;3.13;;;2.92;;
64560;SDS011;50960;46.838;16.838;2023-07-29T09:26:27;3.45;;;3.15;;
64560;SDS011;50960;46.838;16.838;2023-07-29T09:28:57;3.45;;;2.70;;
64560;SDS011;50960;46.838;16.838;2023-07-29T09:31:26;3.40;;;3.10;;
64560;SDS011;50960;46.838;16.838;2023-07-29T09:33:55;5.43;;;3.50;;
64560;SDS011;50960;46.838;16.838;2023-07-29T09:36:26;3.70;;;3.40;;
64560;SDS011;50960;46.838;16.838;2023-07-29T09:38:53;3.22;;;3.03;;
64560;SDS011;50960;46.838;16.838;2023-07-29T09:41:22;3.55;;;2.88;;
64560;SDS011;50960;46.838;16.838;2023-07-29T09:43:57;3.40;;;3.10;;
64560;SDS011;50960;46.838;16.838;2023-07-29T09:46:24;3.28;;;3.05;;
64560;SDS011;50960;46.838;16.838;2023-07-29T09:48:57;4.68;;;3.03;;
64560;SDS011;50960;46.838;16.838;2023-07-29T09:51:23;3.15;;;2.95;;
64560;SDS011;50960;46.838;16.838;2023-07-29T09:53:50;4.70;;;2.97;;
64560;SDS011;50960;46.838;16.838;2023-07-29T09:56:24;2.90;;;2.70;;
64560;SDS011;50960;46.838;16.838;2023-07-29T09:58:52;3.20;;;2.90;;
64560;SDS011;50960;46.838;16.838;2023-07-29T10:01:21;2.97;;;2.72;;
64560;SDS011;50960;46.838;16.838;2023-07-29T10:03:47;2.67;;;2.47;;
64560;SDS011;50960;46.838;16.838;2023-07-29T10:06:15;2.80;;;2.60;;
64560;SDS011;50960;46.838;16.838;2023-07-29T10:08:42;2.63;;;2.42;;
64560;SDS011;50960;46.838;16.838;2023-07-29T10:11:10;3.08;;;2.78;;
64560;SDS011;50960;46.838;16.838;2023-07-29T10:13:38;3.40;;;2.40;;
64560;SDS011;50960;46.838;16.838;2023-07-29T10:16:05;2.90;;;2.50;;
64560;SDS011;50960;46.838;16.838;2023-07-29T10:18:34;3.40;;;2.53;;
64560;SDS011;50960;46.838;16.838;2023-07-29T10:21:01;2.70;;;2.50;;
64560;SDS011;50960;46.838;16.838;2023-07-29T10:23:41;2.70;;;2.50;;
64560;SDS011;50960;46.838;16.838;2023-07-29T10:26:12;2.80;;;2.55;;
64560;SDS011;50960;46.838;16.838;2023-07-29T10:28:43;2.90;;;2.60;;
64560;SDS011;50960;46.838;16.838;2023-07-29T10:31:15;2.92;;;2.50;;
64560;SDS011;50960;46.838;16.838;2023-07-29T10:33:45;2.65;;;2.40;;
64560;SDS011;50960;46.838;16.838;2023-07-29T10:36:12;2.88;;;2.58;;
64560;SDS011;50960;46.838;16.838;2023-07-29T10:38:41;2.95;;;2.65;;
64560;SDS011;50960;46.838;16.838;2023-07-29T10:41:07;3.33;;;2.65;;
64560;SDS011;50960;46.838;16.838;2023-07-29T10:43:35;2.50;;;2.30;;
64560;SDS011;50960;46.838;16.838;2023-07-29T10:46:19;2.70;;;2.50;;
64560;SDS011;50960;46.838;16.838;2023-07-29T10:54:02;2.97;;;2.70;;
64560;SDS011;50960;46.838;16.838;2023-07-29T10:56:30;2.42;;;2.22;;
64560;SDS011;50960;46.838;16.838;2023-07-29T11:01:56;2.92;;;2.60;;
64560;SDS011;50960;46.838;16.838;2023-07-29T11:09:42;2.92;;;2.65;;
64560;SDS011;50960;46.838;16.838;2023-07-29T11:17:45;6.63;;;2.67;;
64560;SDS011;50960;46.838;16.838;2023-07-29T11:20:15;2.97;;;2.70;;
64560;SDS011;50960;46.838;16.838;2023-07-29T11:22:42;2.60;;;2.40;;
64560;SDS011;50960;46.838;16.838;2023-07-29T11:25:09;3.13;;;2.70;;
64560;SDS011;50960;46.838;16.838;2023-07-29T11:27:37;3.10;;;2.47;;
64560;SDS011;50960;46.838;16.838;2023-07-29T11:30:05;2.65;;;2.45;;
64560;SDS011;50960;46.838;16.838;2023-07-29T11:32:34;3.95;;;2.35;;
64560;SDS011;50960;46.838;16.838;2023-07-29T11:35:02;2.47;;;2.28;;
64560;SDS011;50960;46.838;16.838;2023-07-29T11:37:29;2.70;;;2.50;;
64560;SDS011;50960;46.838;16.838;2023-07-29T11:39:56;3.50;;;2.70;;
64560;SDS011;50960;46.838;16.838;2023-07-29T11:42:23;3.05;;;2.47;;
64560;SDS011;50960;46.838;16.838;2023-07-29T11:44:54;3.45;;;2.60;;
64560;SDS011;50960;46.838;16.838;2023-07-29T11:47:22;2.85;;;2.58;;
64560;SDS011;50960;46.838;16.838;2023-07-29T11:49:49;2.70;;;2.50;;
64560;SDS011;50960;46.838;16.838;2023-07-29T11:52:15;2.83;;;2.40;;
64560;SDS011;50960;46.838;16.838;2023-07-29T11:54:46;2.90;;;2.70;;
64560;SDS011;50960;46.838;16.838;2023-07-29T11:57:14;2.83;;;2.63;;
64560;SDS011;50960;46.838;16.838;2023-07-29T11:59:42;4.45;;;2.67;;
64560;SDS011;50960;46.838;16.838;2023-07-29T12:02:12;4.22;;;2.63;;
64560;SDS011;50960;46.838;16.838;2023-07-29T12:04:41;3.95;;;2.80;;
64560;SDS011;50960;46.838;16.838;2023-07-29T12:07:09;3.13;;;2.60;;
64560;SDS011;50960;46.838;16.838;2023-07-29T12:09:36;3.40;;;3.00;;
64560;SDS011;50960;46.838;16.838;2023-07-29T12:12:03;2.90;;;2.70;;
64560;SDS011;50960;46.838;16.838;2023-07-29T12:14:30;3.38;;;3.08;;
64560;SDS011;50960;46.838;16.838;2023-07-29T12:17:01;3.90;;;2.67;;
64560;SDS011;50960;46.838;16.838;2023-07-29T12:19:35;4.68;;;2.53;;
64560;SDS011;50960;46.838;16.838;2023-07-29T12:22:04;2.85;;;2.65;;
64560;SDS011;50960;46.838;16.838;2023-07-29T12:24:32;4.00;;;2.60;;
64560;SDS011;50960;46.838;16.838;2023-07-29T12:27:00;3.25;;;2.50;;
64560;SDS011;50960;46.838;16.838;2023-07-29T12:29:29;2.70;;;2.50;;
64560;SDS011;50960;46.838;16.838;2023-07-29T12:31:59;2.85;;;2.65;;
64560;SDS011;50960;46.838;16.838;2023-07-29T12:34:28;4.63;;;2.72;;
64560;SDS011;50960;46.838;16.838;2023-07-29T12:36:57;3.35;;;2.60;;
64560;SDS011;50960;46.838;16.838;2023-07-29T12:39:28;3.03;;;2.72;;
64560;SDS011;50960;46.838;16.838;2023-07-29T12:41:56;2.90;;;2.70;;
64560;SDS011;50960;46.838;16.838;2023-07-29T12:44:24;2.75;;;2.55;;
64560;SDS011;50960;46.838;16.838;2023-07-29T12:46:55;3.97;;;2.85;;
64560;SDS011;50960;46.838;16.838;2023-07-29T12:49:21;4.15;;;2.85;;
64560;SDS011;50960;46.838;16.838;2023-07-29T12:51:48;3.35;;;2.63;;
64560;SDS011;50960;46.838;16.838;2023-07-29T12:54:14;2.92;;;2.65;;
64560;SDS011;50960;46.838;16.838;2023-07-29T12:56:41;2.97;;;2.67;;
64560;SDS011;50960;46.838;16.838;2023-07-29T12:59:07;4.07;;;2.70;;
64560;SDS011;50960;46.838;16.838;2023-07-29T13:01:34;3.65;;;3.28;;
64560;SDS011;50960;46.838;16.838;2023-07-29T13:04:00;2.90;;;2.67;;
64560;SDS011;50960;46.838;16.838;2023-07-29T13:06:27;4.78;;;2.90;;
64560;SDS011;50960;46.838;16.838;2023-07-29T13:08:54;5.25;;;3.00;;
64560;SDS011;50960;46.838;16.838;2023-07-29T13:11:20;2.97;;;2.78;;
64560;SDS011;50960;46.838;16.838;2023-07-29T13:13:47;2.70;;;2.50;;
64560;SDS011;50960;46.838;16.838;2023-07-29T13:16:13;3.47;;;3.17;;
64560;SDS011;50960;46.838;16.838;2023-07-29T13:18:39;4.00;;;2.83;;
64560;SDS011;50960;46.838;16.838;2023-07-29T13:21:06;2.67;;;2.47;;
64560;SDS011;50960;46.838;16.838;2023-07-29T13:23:33;3.28;;;2.97;;
64560;SDS011;50960;46.838;16.838;2023-07-29T13:26:00;2.85;;;2.65;;
64560;SDS011;50960;46.838;16.838;2023-07-29T13:28:27;3.88;;;2.80;;
64560;SDS011;50960;46.838;16.838;2023-07-29T13:30:53;3.35;;;3.05;;
64560;SDS011;50960;46.838;16.838;2023-07-29T13:33:20;4.82;;;3.60;;
64560;SDS011;50960;46.838;16.838;2023-07-29T13:35:46;3.10;;;2.78;;
64560;SDS011;50960;46.838;16.838;2023-07-29T13:38:13;2.72;;;2.53;;
64560;SDS011;50960;46.838;16.838;2023-07-29T13:40:39;3.03;;;2.70;;
64560;SDS011;50960;46.838;16.838;2023-07-29T13:43:06;3.20;;;2.80;;
64560;SDS011;50960;46.838;16.838;2023-07-29T13:45:33;2.65;;;2.45;;
64560;SDS011;50960;46.838;16.838;2023-07-29T13:48:00;4.22;;;2.80;;
64560;SDS011;50960;46.838;16.838;2023-07-29T13:50:26;3.90;;;2.65;;
64560;SDS011;50960;46.838;16.838;2023-07-29T13:52:53;3.13;;;2.83;;
64560;SDS011;50960;46.838;16.838;2023-07-29T13:55:19;3.00;;;2.80;;
64560;SDS011;50960;46.838;16.838;2023-07-29T13:57:46;3.05;;;2.80;;
64560;SDS011;50960;46.838;16.838;2023-07-29T14:00:13;3.00;;;2.47;;
64560;SDS011;50960;46.838;16.838;2023-07-29T14:02:39;2.55;;;2.35;;
64560;SDS011;50960;46.838;16.838;2023-07-29T14:05:07;3.10;;;2.80;;
64560;SDS011;50960;46.838;16.838;2023-07-29T14:07:33;2.50;;;2.30;;
64560;SDS011;50960;46.838;16.838;2023-07-29T14:10:02;2.30;;;2.20;;
64560;SDS011;50960;46.838;16.838;2023-07-29T14:12:36;2.58;;;2.35;;
64560;SDS011;50960;46.838;16.838;2023-07-29T14:15:03;2.95;;;2.63;;
64560;SDS011;50960;46.838;16.838;2023-07-29T14:17:30;2.85;;;2.65;;
64560;SDS011;50960;46.838;16.838;2023-07-29T14:19:57;4.43;;;2.90;;
64560;SDS011;50960;46.838;16.838;2023-07-29T14:22:24;2.72;;;2.40;;
64560;SDS011;50960;46.838;16.838;2023-07-29T14:24:50;2.88;;;2.63;;
64560;SDS011;50960;46.838;16.838;2023-07-29T14:27:16;3.25;;;2.50;;
64560;SDS011;50960;46.838;16.838;2023-07-29T14:29:43;2.97;;;2.28;;
64560;SDS011;50960;46.838;16.838;2023-07-29T14:32:09;2.90;;;2.70;;
64560;SDS011;50960;46.838;16.838;2023-07-29T14:34:36;3.10;;;2.75;;
64560;SDS011;50960;46.838;16.838;2023-07-29T14:37:04;4.57;;;2.85;;
64560;SDS011;50960;46.838;16.838;2023-07-29T14:39:31;3.08;;;2.80;;
64560;SDS011;50960;46.838;16.838;2023-07-29T14:41:57;3.03;;;2.80;;
64560;SDS011;50960;46.838;16.838;2023-07-29T14:44:23;4.05;;;3.00;;
64560;SDS011;50960;46.838;16.838;2023-07-29T14:46:50;3.15;;;2.90;;
64560;SDS011;50960;46.838;16.838;2023-07-29T14:49:16;4.10;;;3.38;;
64560;SDS011;50960;46.838;16.838;2023-07-29T14:51:43;5.18;;;2.78;;
64560;SDS011;50960;46.838;16.838;2023-07-29T14:54:09;3.05;;;2.85;;
64560;SDS011;50960;46.838;16.838;2023-07-29T14:56:40;3.55;;;2.75;;
64560;SDS011;50960;46.838;16.838;2023-07-29T14:59:06;3.63;;;3.13;;
64560;SDS011;50960;46.838;16.838;2023-07-29T15:01:33;3.28;;;3.00;;
64560;SDS011;50960;46.838;16.838;2023-07-29T15:03:59;2.80;;;2.60;;